Time;durP1;ratioP1;P1;durP2;ratioP2;P2;SDS_P1;SDS_P2;PMS_P1;PMS_P2;Temp;Humidity;BMP_temperature;BMP_pressure;BME280_temperature;BME280_humidity;BME280_pressure;Samples;Min_cycle;Max_cycle;Signal;HPM_P1;HPM_P2
2022/05/04 00:01:23;;;;;;;8.68;6.30;;;12.30;99.90;;;;;;5182024;28;20049;-73
2022/05/04 00:03:55;;;;;;;8.60;6.30;;;12.30;99.90;;;;;;5178192;28;20049;-73
2022/05/04 00:06:28;;;;;;;9.18;6.93;;;12.30;99.90;;;;;;5184941;28;20053;-74
2022/05/04 00:09:00;;;;;;;11.55;6.40;;;12.30;99.90;;;;;;5180255;28;20556;-74
2022/05/04 00:11:33;;;;;;;15.10;7.63;;;12.30;99.90;;;;;;5177891;28;20052;-74
2022/05/04 00:14:05;;;;;;;12.45;7.57;;;12.30;99.90;;;;;;5178971;28;20045;-74
2022/05/04 00:16:37;;;;;;;9.88;7.28;;;12.30;99.90;;;;;;5174794;28;20060;-73
2022/05/04 00:19:10;;;;;;;11.25;7.28;;;12.30;99.90;;;;;;5178582;28;20045;-75
2022/05/04 00:21:42;;;;;;;8.63;7.50;;;12.30;99.90;;;;;;5184936;28;20053;-73
2022/05/04 00:24:19;;;;;;;13.45;7.75;;;12.40;99.90;;;;;;5177705;28;20048;-73
2022/05/04 00:26:51;;;;;;;12.52;8.25;;;12.40;99.90;;;;;;5178376;28;20748;-74
2022/05/04 00:29:24;;;;;;;11.95;7.57;;;12.40;99.90;;;;;;5175926;28;20052;-74
2022/05/04 00:31:56;;;;;;;10.35;7.43;;;12.40;99.90;;;;;;5163478;28;20045;-74
2022/05/04 00:34:29;;;;;;;10.10;7.63;;;12.30;99.90;;;;;;5173747;28;20553;-74
2022/05/04 00:37:01;;;;;;;10.93;7.78;;;12.30;99.90;;;;;;5176364;28;20045;-74
2022/05/04 00:39:34;;;;;;;11.80;7.95;;;12.40;99.90;;;;;;5169787;28;20042;-74
2022/05/04 00:42:11;;;;;;;9.52;7.22;;;12.40;99.90;;;;;;5194577;28;21384;-74
2022/05/04 00:44:47;;;;;;;10.77;7.30;;;12.30;99.90;;;;;;5169591;28;20781;-75
2022/05/04 00:47:20;;;;;;;12.75;7.38;;;12.30;99.90;;;;;;5175869;28;20057;-75
2022/05/04 00:49:53;;;;;;;11.45;6.75;;;12.40;99.90;;;;;;5178549;28;20056;-73
2022/05/04 00:52:26;;;;;;;11.25;6.78;;;12.30;99.90;;;;;;5178462;28;20045;-74
2022/05/04 00:54:59;;;;;;;8.45;7.28;;;12.30;99.90;;;;;;5173681;28;21012;-73
2022/05/04 01:00:25;;;;;;;7.68;5.88;;;12.40;99.90;;;;;;5181389;28;20053;-72
2022/05/04 01:02:58;;;;;;;7.25;6.03;;;12.40;99.90;;;;;;5165118;28;20049;-74
2022/05/04 01:05:30;;;;;;;8.00;5.78;;;12.40;99.90;;;;;;5175569;28;20049;-74
2022/05/04 01:08:03;;;;;;;9.57;6.55;;;12.30;99.90;;;;;;5173944;28;20060;-74
2022/05/04 01:10:35;;;;;;;8.30;6.43;;;12.40;99.90;;;;;;5170728;28;20375;-74
2022/05/04 01:13:08;;;;;;;8.45;6.60;;;12.40;99.90;;;;;;5184961;28;20439;-74
2022/05/04 01:15:41;;;;;;;6.40;5.43;;;12.40;99.90;;;;;;5172589;28;20460;-74
2022/05/04 01:18:14;;;;;;;7.47;6.22;;;12.40;99.90;;;;;;5170600;28;20132;-74
2022/05/04 01:20:46;;;;;;;9.50;6.27;;;12.40;99.90;;;;;;5177839;28;20056;-74
2022/05/04 01:23:19;;;;;;;10.43;6.72;;;12.40;99.90;;;;;;5172467;28;21954;-74
2022/05/04 01:25:53;;;;;;;11.13;6.82;;;12.40;99.90;;;;;;5174197;28;20463;-73
2022/05/04 01:28:25;;;;;;;8.23;6.60;;;12.40;99.90;;;;;;5173292;28;20045;-73
2022/05/04 01:30:58;;;;;;;7.47;6.22;;;12.40;99.90;;;;;;5186335;28;20056;-74
2022/05/04 01:33:30;;;;;;;8.68;6.60;;;12.40;99.90;;;;;;5182718;28;20050;-74
2022/05/04 01:36:03;;;;;;;8.27;6.80;;;12.40;99.90;;;;;;5175306;28;20045;-74
2022/05/04 01:38:36;;;;;;;8.23;6.82;;;12.50;99.90;;;;;;5179627;28;20041;-74
2022/05/04 01:42:02;;;;;;;7.55;6.15;;;12.40;99.90;;;;;;5192971;28;20054;-74
2022/05/04 01:44:01;;;;;;;9.65;6.97;;;12.50;99.90;;;;;;5177699;28;20452;-74
2022/05/04 01:46:33;;;;;;;9.45;7.35;;;12.40;99.90;;;;;;5177491;28;20062;-74
2022/05/04 01:49:06;;;;;;;9.80;7.45;;;12.40;99.90;;;;;;5179800;28;20374;-74
2022/05/04 01:51:38;;;;;;;10.43;7.20;;;12.40;99.90;;;;;;5178642;28;20117;-74
2022/05/04 01:54:10;;;;;;;9.88;7.10;;;12.30;99.90;;;;;;5177667;28;20382;-74
2022/05/04 01:56:43;;;;;;;11.07;7.30;;;12.30;99.90;;;;;;5186882;28;20357;-73
2022/05/04 01:59:15;;;;;;;9.32;6.63;;;12.30;99.90;;;;;;5179476;28;20057;-74
2022/05/04 02:01:51;;;;;;;10.73;6.32;;;12.20;99.90;;;;;;5174921;28;20060;-74
2022/05/04 02:04:24;;;;;;;8.20;6.55;;;12.20;99.90;;;;;;5173235;28;20053;-73
2022/05/04 02:06:56;;;;;;;7.45;6.22;;;12.20;99.90;;;;;;5181539;28;20226;-74
2022/05/04 02:09:29;;;;;;;8.75;6.50;;;12.30;99.90;;;;;;5176350;28;20060;-74
2022/05/04 02:12:03;;;;;;;7.65;6.28;;;12.30;99.90;;;;;;5175959;28;20582;-73
2022/05/04 02:14:36;;;;;;;7.53;6.03;;;12.30;99.90;;;;;;5178453;28;20500;-75
2022/05/04 02:17:08;;;;;;;9.80;6.50;;;12.20;99.90;;;;;;5178152;28;20049;-75
2022/05/04 02:19:40;;;;;;;8.77;5.90;;;12.20;99.90;;;;;;5171415;28;20541;-74
2022/05/04 02:22:13;;;;;;;8.57;6.47;;;12.20;99.90;;;;;;5181079;28;20062;-75
2022/05/04 02:24:46;;;;;;;7.55;6.03;;;12.10;99.90;;;;;;5181246;28;20056;-75
2022/05/04 02:27:18;;;;;;;9.23;6.47;;;12.10;99.90;;;;;;5177979;28;20057;-74
2022/05/04 02:29:51;;;;;;;7.60;6.43;;;12.10;99.90;;;;;;5179091;28;20056;-75
2022/05/04 02:32:25;;;;;;;7.30;6.20;;;12.10;99.90;;;;;;5186962;28;20073;-74
2022/05/04 02:37:54;;;;;;;8.30;6.55;;;12.10;99.90;;;;;;5187381;28;20057;-75
2022/05/04 02:40:26;;;;;;;8.82;6.10;;;12.00;99.90;;;;;;5188972;28;20049;-75
2022/05/04 02:43:00;;;;;;;9.30;6.20;;;12.10;99.90;;;;;;5186593;28;20065;-74
2022/05/04 02:45:33;;;;;;;;;;;12.10;99.90;;;;;;5186405;28;20060;-74
2022/05/04 02:48:09;;;;;;;11.02;6.18;;;12.00;99.90;;;;;;5180889;28;19921;-75
2022/05/04 02:50:41;;;;;;;8.15;6.28;;;12.00;99.90;;;;;;5191541;28;20378;-75
2022/05/04 02:53:14;;;;;;;8.35;6.72;;;12.10;99.90;;;;;;5164309;28;20500;-74
2022/05/04 02:55:46;;;;;;;8.60;6.50;;;12.10;99.90;;;;;;5179137;28;20045;-75
2022/05/04 02:58:19;;;;;;;10.35;6.25;;;12.10;99.90;;;;;;5183047;28;20048;-75
2022/05/04 03:00:51;;;;;;;8.07;6.20;;;12.00;99.90;;;;;;5173473;28;20048;-75
2022/05/04 03:03:23;;;;;;;8.63;6.35;;;12.00;99.90;;;;;;5189751;28;20064;-74
2022/05/04 03:05:56;;;;;;;11.15;6.50;;;12.00;99.90;;;;;;5176897;28;20045;-75
2022/05/04 03:08:28;;;;;;;12.10;6.63;;;11.90;99.90;;;;;;5177161;28;20072;-75
2022/05/04 03:14:07;;;;;;;;;;;11.90;99.90;;;;;;5114242;28;20045;-74
2022/05/04 03:16:39;;;;;;;7.45;6.28;;;11.80;99.90;;;;;;5173515;28;19929;-75
2022/05/04 03:19:12;;;;;;;8.15;6.60;;;11.90;99.90;;;;;;5180693;28;20516;-74
2022/05/04 03:21:47;;;;;;;15.68;7.10;;;11.90;99.90;;;;;;5175083;28;20064;-75
2022/05/04 03:24:19;;;;;;;18.00;7.40;;;11.90;99.90;;;;;;5178656;28;20057;-74
2022/05/04 03:26:52;;;;;;;8.02;6.22;;;11.90;99.90;;;;;;5186745;28;20050;-74
2022/05/04 03:29:24;;;;;;;9.00;6.72;;;11.90;99.90;;;;;;5184555;28;20063;-74
2022/05/04 03:31:57;;;;;;;7.53;6.15;;;11.90;99.90;;;;;;5187678;28;20543;-74
2022/05/04 03:34:30;;;;;;;8.60;7.23;;;11.90;99.90;;;;;;5165788;28;20053;-74
2022/05/04 03:37:04;;;;;;;10.02;7.28;;;11.80;99.90;;;;;;5182486;28;20386;-75
2022/05/04 03:39:36;;;;;;;10.02;6.55;;;11.80;99.90;;;;;;5171120;28;20410;-74
2022/05/04 03:42:09;;;;;;;9.85;6.68;;;11.80;99.90;;;;;;5181470;28;20053;-74
2022/05/04 03:44:42;;;;;;;9.23;7.30;;;11.80;99.90;;;;;;5174746;28;20524;-74
2022/05/04 03:47:14;;;;;;;9.32;7.38;;;11.70;99.90;;;;;;5171199;28;20960;-74
2022/05/04 03:49:47;;;;;;;10.52;7.20;;;11.70;99.90;;;;;;5181616;28;20368;-73
2022/05/04 03:52:21;;;;;;;8.40;6.38;;;11.70;99.90;;;;;;5168806;28;20041;-73
2022/05/04 03:54:53;;;;;;;11.18;6.43;;;11.70;99.90;;;;;;5176632;28;20052;-73
2022/05/04 03:57:25;;;;;;;10.98;7.32;;;11.70;99.90;;;;;;5162971;28;20315;-74
2022/05/04 03:59:58;;;;;;;9.20;6.95;;;11.70;99.90;;;;;;5167313;28;20045;-73
2022/05/04 04:02:30;;;;;;;17.42;8.18;;;11.60;99.90;;;;;;5164793;28;20054;-73
2022/05/04 04:05:03;;;;;;;9.30;7.10;;;11.60;99.90;;;;;;5170450;28;20678;-74
2022/05/04 04:07:35;;;;;;;8.85;7.63;;;11.60;99.90;;;;;;5173466;28;20060;-74
2022/05/04 04:10:08;;;;;;;11.13;7.47;;;11.60;99.90;;;;;;5175436;28;20049;-74
2022/05/04 04:12:41;;;;;;;9.02;6.72;;;11.60;99.90;;;;;;5174608;28;20502;-74
2022/05/04 04:15:13;;;;;;;10.52;7.15;;;11.70;99.90;;;;;;5169092;28;20151;-74
2022/05/04 04:17:47;;;;;;;9.52;6.90;;;11.70;99.90;;;;;;5172867;28;20065;-74
2022/05/04 04:23:11;;;;;;;8.00;6.78;;;11.70;99.90;;;;;;5161564;28;20516;-74
2022/05/04 04:25:44;;;;;;;8.02;6.88;;;11.60;99.90;;;;;;5169889;28;20659;-75
2022/05/04 04:28:16;;;;;;;10.50;7.30;;;11.60;99.90;;;;;;5160368;28;20057;-75
2022/05/04 04:30:49;;;;;;;11.55;7.78;;;11.60;99.90;;;;;;5158511;28;20045;-75
2022/05/04 04:33:29;;;;;;;9.43;7.30;;;11.60;99.90;;;;;;5166919;28;20126;-75
2022/05/04 04:36:02;;;;;;;9.13;7.13;;;11.60;99.90;;;;;;5162841;28;20052;-75
2022/05/04 04:38:34;;;;;;;8.60;7.07;;;11.60;99.90;;;;;;5170053;28;20050;-75
2022/05/04 04:41:07;;;;;;;11.80;7.50;;;11.70;99.90;;;;;;5165755;28;20084;-75
2022/05/04 04:43:39;;;;;;;9.52;6.90;;;11.80;99.90;;;;;;5156716;28;20056;-74
2022/05/04 04:46:12;;;;;;;11.65;7.82;;;11.80;99.90;;;;;;5161785;28;20057;-75
2022/05/04 04:48:44;;;;;;;8.85;6.70;;;11.90;99.90;;;;;;5162823;28;20417;-75
2022/05/04 04:51:16;;;;;;;9.35;7.15;;;11.90;99.90;;;;;;5174423;28;20490;-75
2022/05/04 04:53:49;;;;;;;8.38;6.88;;;12.00;99.90;;;;;;5150563;28;20064;-75
2022/05/04 04:56:21;;;;;;;8.10;6.60;;;12.00;99.90;;;;;;5151260;28;20037;-75
2022/05/04 04:58:53;;;;;;;9.13;6.97;;;12.10;99.90;;;;;;5152978;28;20052;-74
2022/05/04 05:01:26;;;;;;;9.98;7.25;;;12.10;99.90;;;;;;5158440;28;20473;-75
2022/05/04 05:03:58;;;;;;;8.68;7.03;;;12.20;99.90;;;;;;5141122;28;20056;-74
2022/05/04 05:06:31;;;;;;;10.98;7.15;;;12.20;99.90;;;;;;5152344;28;20505;-74
2022/05/04 05:09:04;;;;;;;8.85;5.55;;;12.20;99.90;;;;;;5140173;28;20046;-74
2022/05/04 05:11:36;;;;;;;15.23;8.20;;;12.30;99.90;;;;;;5149748;28;20053;-74
2022/05/04 05:17:00;;;;;;;10.52;7.88;;;12.40;99.90;;;;;;5154329;28;20036;-74
2022/05/04 05:19:32;;;;;;;10.70;7.25;;;12.50;99.90;;;;;;5150483;28;20056;-74
2022/05/04 05:22:05;;;;;;;9.27;7.88;;;12.60;99.90;;;;;;5161373;28;20050;-73
2022/05/04 05:24:37;;;;;;;11.32;7.78;;;12.60;99.90;;;;;;5156217;28;20394;-73
2022/05/04 05:27:10;;;;;;;10.95;7.28;;;12.60;99.90;;;;;;5147738;28;20567;-74
2022/05/04 05:29:42;;;;;;;11.38;8.18;;;12.70;99.90;;;;;;5152979;28;20405;-74
2022/05/04 05:32:15;;;;;;;13.15;8.80;;;12.70;99.90;;;;;;5150751;28;20340;-74
2022/05/04 05:34:47;;;;;;;11.65;8.27;;;12.70;99.90;;;;;;5143282;28;20903;-73
2022/05/04 05:37:20;;;;;;;11.27;8.13;;;12.80;99.90;;;;;;5167862;28;20044;-74
2022/05/04 05:39:53;;;;;;;11.48;7.72;;;12.80;99.90;;;;;;5179004;28;21228;-74
2022/05/04 05:42:28;;;;;;;13.93;8.03;;;12.80;99.90;;;;;;5186235;28;20045;-74
2022/05/04 05:45:02;;;;;;;9.52;7.32;;;12.70;99.90;;;;;;5177761;28;20508;-74
2022/05/04 05:47:35;;;;;;;10.27;7.50;;;12.80;99.90;;;;;;5187788;28;20508;-74
2022/05/04 05:50:08;;;;;;;8.45;7.13;;;12.80;99.90;;;;;;5184105;28;20045;-74
2022/05/04 05:52:40;;;;;;;9.15;6.85;;;12.80;99.90;;;;;;5190168;28;20050;-74
2022/05/04 05:55:13;;;;;;;11.57;7.93;;;12.80;99.90;;;;;;5183270;28;20037;-74
2022/05/04 05:57:45;;;;;;;11.80;7.30;;;12.80;99.90;;;;;;5203251;28;20049;-74
2022/05/04 06:00:18;;;;;;;10.88;7.70;;;12.90;99.90;;;;;;5182475;28;20060;-74
2022/05/04 06:02:50;;;;;;;10.00;7.10;;;12.90;99.90;;;;;;5188964;28;20546;-74
2022/05/04 06:05:22;;;;;;;11.07;7.60;;;12.90;99.90;;;;;;5179267;28;20060;-74
2022/05/04 06:07:55;;;;;;;9.50;7.45;;;12.90;99.90;;;;;;5170420;28;20060;-73
2022/05/04 06:10:34;;;;;;;10.38;6.88;;;13.00;99.90;;;;;;5178645;28;20533;-74
2022/05/04 06:13:07;;;;;;;13.43;7.45;;;13.00;99.90;;;;;;5191449;28;21169;-74
2022/05/04 06:15:39;;;;;;;10.03;8.10;;;13.00;99.90;;;;;;5183629;28;20060;-73
2022/05/04 06:18:12;;;;;;;10.27;7.70;;;13.00;99.90;;;;;;5190091;28;20042;-74
2022/05/04 06:20:44;;;;;;;8.57;7.20;;;13.00;99.90;;;;;;5190914;28;20057;-74
2022/05/04 06:23:17;;;;;;;9.05;6.75;;;13.00;99.90;;;;;;5182558;28;20049;-74
2022/05/04 06:25:49;;;;;;;17.98;10.15;;;13.10;99.90;;;;;;5186920;28;20052;-74
2022/05/04 06:28:21;;;;;;;14.85;9.93;;;13.10;99.90;;;;;;5188237;28;20269;-74
2022/05/04 06:36:39;;;;;;;10.45;7.90;;;13.00;99.90;;;;;;5199205;28;20046;-73
2022/05/04 06:39:12;;;;;;;11.77;7.35;;;13.00;99.90;;;;;;5211714;28;20038;-74
2022/05/04 06:41:44;;;;;;;10.38;6.75;;;13.00;99.90;;;;;;5193808;28;20065;-74
2022/05/04 06:44:16;;;;;;;12.85;7.18;;;13.00;99.90;;;;;;5192255;28;20053;-74
2022/05/04 06:46:49;;;;;;;7.72;5.43;;;13.00;99.90;;;;;;5195507;28;20072;-73
2022/05/04 06:49:22;;;;;;;9.60;5.60;;;13.10;99.90;;;;;;5190103;28;20321;-74
2022/05/04 06:51:54;;;;;;;10.27;5.65;;;13.10;99.90;;;;;;5187379;28;20045;-74
2022/05/04 06:54:26;;;;;;;7.68;5.22;;;13.10;99.90;;;;;;5192390;28;20041;-74
2022/05/04 06:56:59;;;;;;;7.20;5.70;;;13.20;99.90;;;;;;5189132;28;20045;-74
2022/05/04 06:59:31;;;;;;;7.95;5.45;;;13.10;99.90;;;;;;5185723;28;22852;-73
2022/05/04 07:02:04;;;;;;;11.00;5.70;;;13.10;99.90;;;;;;5185838;28;20054;-73
2022/05/04 07:04:36;;;;;;;5.13;4.38;;;13.10;99.90;;;;;;5179528;28;20050;-75
2022/05/04 07:07:09;;;;;;;9.27;5.47;;;13.10;99.90;;;;;;5182888;28;20049;-74
2022/05/04 07:09:41;;;;;;;11.13;4.85;;;13.10;99.90;;;;;;5201169;28;21087;-74
2022/05/04 07:12:14;;;;;;;5.13;4.20;;;13.20;99.90;;;;;;5167431;28;20044;-73
2022/05/04 07:14:46;;;;;;;4.80;4.13;;;13.20;99.90;;;;;;5182746;28;20053;-74
2022/05/04 07:17:19;;;;;;;8.05;4.05;;;13.20;99.90;;;;;;5202871;28;20356;-74
2022/05/04 07:19:52;;;;;;;6.03;4.30;;;13.20;99.90;;;;;;5192108;28;20520;-75
2022/05/04 07:22:25;;;;;;;6.40;4.60;;;13.20;99.90;;;;;;5185759;28;20056;-74
2022/05/04 07:24:58;;;;;;;5.82;4.50;;;13.20;99.90;;;;;;5190565;28;20062;-74
2022/05/04 07:27:30;;;;;;;6.03;4.45;;;13.20;99.90;;;;;;5191289;28;20058;-74
2022/05/04 07:30:03;;;;;;;4.88;3.97;;;13.30;99.90;;;;;;5185153;28;20409;-74
2022/05/04 07:32:36;;;;;;;5.35;4.15;;;13.60;99.90;;;;;;5187558;28;20060;-74
2022/05/04 07:35:08;;;;;;;5.93;3.88;;;13.80;99.90;;;;;;5188386;28;20042;-74
2022/05/04 07:37:42;;;;;;;5.38;3.70;;;14.10;99.90;;;;;;5201750;28;20056;-74
2022/05/04 07:43:06;;;;;;;5.82;3.38;;;14.30;99.90;;;;;;5190210;28;20049;-74
2022/05/04 07:45:38;;;;;;;4.45;3.25;;;14.50;99.90;;;;;;5179956;28;20041;-74
2022/05/04 07:48:10;;;;;;;4.65;3.10;;;14.70;99.90;;;;;;5179139;28;20045;-74
2022/05/04 07:50:43;;;;;;;4.28;3.50;;;14.80;99.90;;;;;;5187841;28;20049;-74
2022/05/04 07:53:15;;;;;;;3.63;3.00;;;14.90;98.80;;;;;;5181133;28;20052;-74
2022/05/04 07:55:48;;;;;;;4.93;2.75;;;15.00;98.50;;;;;;5173007;28;20158;-74
2022/05/04 07:58:20;;;;;;;3.13;2.70;;;15.20;97.50;;;;;;5165770;28;20045;-74
2022/05/04 08:06:34;;;;;;;3.83;2.50;;;15.50;93.30;;;;;;5180702;28;20237;-74
2022/05/04 08:09:07;;;;;;;4.55;2.75;;;15.50;91.30;;;;;;5182375;28;20057;-73
2022/05/04 08:11:41;;;;;;;3.65;2.67;;;15.50;89.50;;;;;;5183041;28;20049;-74
2022/05/04 08:14:13;;;;;;;2.55;2.30;;;15.50;89.90;;;;;;5188277;28;20046;-74
2022/05/04 08:16:46;;;;;;;4.30;2.63;;;15.60;88.80;;;;;;5189739;28;20064;-74
2022/05/04 08:19:22;;;;;;;4.95;2.97;;;15.60;89.20;;;;;;5185590;28;20045;-74
2022/05/04 08:21:55;;;;;;;3.50;2.80;;;15.80;90.90;;;;;;5179599;28;20049;-74
2022/05/04 08:24:28;;;;;;;;;;;15.90;91.50;;;;;;5187905;28;20037;-74
2022/05/04 08:27:00;;;;;;;5.18;2.92;;;15.90;91.60;;;;;;5186664;28;19925;-74
2022/05/04 08:29:32;;;;;;;3.20;2.90;;;16.00;91.30;;;;;;5166851;28;20041;-74
2022/05/04 08:32:05;;;;;;;3.75;2.88;;;16.00;89.20;;;;;;5176482;28;20056;-73
2022/05/04 08:34:38;;;;;;;5.05;3.13;;;16.00;87.50;;;;;;5184917;28;20129;-74
2022/05/04 08:37:10;;;;;;;3.03;2.63;;;16.10;87.70;;;;;;4837760;28;9999726;-74
2022/05/04 08:39:43;;;;;;;4.93;2.60;;;16.20;86.90;;;;;;5185488;28;20536;-75
2022/05/04 08:42:16;;;;;;;4.07;2.88;;;16.40;86.10;;;;;;5177619;28;20501;-74
2022/05/04 08:44:58;;;;;;;4.38;2.70;;;16.60;85.00;;;;;;5170294;28;20057;-75
2022/05/04 08:47:32;;;;;;;3.10;2.80;;;16.70;84.20;;;;;;5175444;28;20049;-75
2022/05/04 08:50:13;;;;;;;5.45;2.75;;;16.90;84.50;;;;;;5173528;28;20064;-75
2022/05/04 08:52:53;;;;;;;3.83;2.55;;;17.00;82.80;;;;;;5179968;28;20072;-74
2022/05/04 08:55:26;;;;;;;5.10;2.55;;;17.10;82.90;;;;;;5180391;28;20554;-75
2022/05/04 08:57:58;;;;;;;3.65;2.47;;;17.40;82.60;;;;;;5174616;28;20591;-74
2022/05/04 09:00:31;;;;;;;3.00;2.70;;;17.50;79.80;;;;;;5183424;28;20053;-74
2022/05/04 09:03:07;;;;;;;4.43;2.60;;;17.50;78.40;;;;;;5184297;28;20042;-74
2022/05/04 09:05:40;;;;;;;3.28;2.78;;;17.60;78.30;;;;;;5181319;28;20061;-74
2022/05/04 09:08:13;;;;;;;3.33;2.67;;;17.60;77.90;;;;;;5170166;28;20057;-74
2022/05/04 09:10:50;;;;;;;3.25;2.53;;;17.60;78.70;;;;;;5179523;28;20051;-74
2022/05/04 09:13:22;;;;;;;5.27;2.53;;;17.70;78.50;;;;;;4830046;28;10000443;-75
2022/05/04 09:15:55;;;;;;;3.63;2.90;;;17.90;77.50;;;;;;5184797;28;20408;-74
2022/05/04 09:18:34;;;;;;;4.57;3.08;;;17.70;76.10;;;;;;5189518;28;20483;-74
2022/05/04 09:21:06;;;;;;;5.22;2.35;;;17.60;77.20;;;;;;5166914;28;21253;-74
2022/05/04 09:23:40;;;;;;;3.47;2.40;;;17.60;77.70;;;;;;5185831;28;20046;-75
2022/05/04 09:26:14;;;;;;;4.15;2.60;;;17.60;78.10;;;;;;5194512;28;20056;-74
2022/05/04 09:28:51;;;;;;;2.95;2.40;;;17.70;77.70;;;;;;5185334;28;20129;-74
2022/05/04 09:31:26;;;;;;;7.53;3.58;;;17.60;77.80;;;;;;5199246;28;20524;-74
2022/05/04 09:34:03;;;;;;;4.80;2.72;;;17.60;78.30;;;;;;5181011;28;20045;-74
2022/05/04 09:45:21;;;;;;;4.07;2.60;;;17.70;78.30;;;;;;5184425;28;20049;-73
2022/05/04 09:47:54;;;;;;;3.25;2.67;;;17.70;77.90;;;;;;5180112;28;20060;-75
2022/05/04 09:50:27;;;;;;;4.78;2.88;;;17.70;77.40;;;;;;5179785;28;20057;-74
2022/05/04 09:53:00;;;;;;;3.20;2.75;;;17.70;78.10;;;;;;5180827;28;20052;-74
2022/05/04 09:55:34;;;;;;;4.05;2.72;;;17.70;78.10;;;;;;5185291;28;21089;-74
2022/05/04 09:58:08;;;;;;;4.30;2.63;;;17.70;76.90;;;;;;5185527;28;20076;-74
2022/05/04 10:00:41;;;;;;;;;;;17.70;76.50;;;;;;5183214;28;20038;-74
2022/05/04 10:03:13;;;;;;;2.70;2.40;;;17.70;74.20;;;;;;5190216;28;19924;-74
2022/05/04 10:05:46;;;;;;;3.58;2.30;;;17.80;75.50;;;;;;5185597;28;20057;-74
2022/05/04 10:08:19;;;;;;;3.25;2.15;;;18.10;75.00;;;;;;5186200;28;20489;-74
2022/05/04 10:10:54;;;;;;;4.68;2.35;;;18.50;74.10;;;;;;5186124;28;20052;-74
2022/05/04 10:13:27;;;;;;;2.40;2.15;;;18.80;71.90;;;;;;5172806;28;20050;-75
2022/05/04 10:16:00;;;;;;;6.18;2.35;;;19.00;70.30;;;;;;5186175;28;20509;-74
2022/05/04 10:18:33;;;;;;;3.58;2.55;;;19.20;70.50;;;;;;5188827;28;20486;-74
2022/05/04 10:21:17;;;;;;;3.13;2.78;;;19.30;69.50;;;;;;5174312;28;20041;-74
2022/05/04 10:23:53;;;;;;;;;;;19.40;68.20;;;;;;5186440;28;20045;-74
2022/05/04 10:26:33;;;;;;;2.53;2.28;;;19.60;67.80;;;;;;5168088;28;19936;-74
2022/05/04 10:32:30;;;;;;;3.67;2.10;;;19.70;67.50;;;;;;5185358;28;20044;-74
2022/05/04 10:35:22;;;;;;;3.40;2.25;;;19.80;65.40;;;;;;5185405;28;20052;-74
2022/05/04 10:37:57;;;;;;;3.30;2.13;;;19.60;65.60;;;;;;5179509;28;20045;-74
2022/05/04 10:40:38;;;;;;;3.40;2.35;;;19.20;67.50;;;;;;5176704;28;20049;-74
2022/05/04 10:43:13;;;;;;;3.10;2.28;;;19.10;68.40;;;;;;5187978;28;20064;-75
2022/05/04 10:45:49;;;;;;;3.35;2.30;;;19.00;69.60;;;;;;5182971;28;20658;-75
2022/05/04 10:48:27;;;;;;;3.47;2.08;;;18.80;70.40;;;;;;5155915;28;20657;-74
2022/05/04 10:51:25;;;;;;;3.83;2.40;;;18.60;69.60;;;;;;5178124;28;20045;-74
2022/05/04 10:54:00;;;;;;;2.30;2.10;;;18.30;69.50;;;;;;5182839;28;20057;-74
2022/05/04 10:56:40;;;;;;;3.88;2.75;;;18.10;71.20;;;;;;5181581;28;20046;-74
2022/05/04 10:59:26;;;;;;;6.60;2.47;;;18.20;72.20;;;;;;5191810;28;20053;-74
2022/05/04 11:02:06;;;;;;;2.47;2.13;;;18.20;71.20;;;;;;5191929;28;20056;-74
2022/05/04 11:04:40;;;;;;;5.50;2.05;;;18.20;72.00;;;;;;5181820;28;20430;-74
2022/05/04 11:07:12;;;;;;;3.22;2.33;;;18.10;70.80;;;;;;5205348;28;20062;-74
2022/05/04 11:09:47;;;;;;;4.43;2.75;;;18.00;72.30;;;;;;5192110;28;20520;-74
2022/05/04 11:12:21;;;;;;;4.20;2.35;;;18.00;74.60;;;;;;5189583;28;20045;-74
2022/05/04 11:14:56;;;;;;;6.78;2.90;;;18.00;77.10;;;;;;5185431;28;20084;-74
2022/05/04 11:17:33;;;;;;;6.90;2.78;;;17.90;78.70;;;;;;5183584;28;20519;-74
2022/05/04 11:20:15;;;;;;;3.65;2.58;;;17.80;78.50;;;;;;5190746;28;20053;-74
2022/05/04 11:22:51;;;;;;;7.63;2.88;;;17.80;79.90;;;;;;5191091;28;20087;-74
2022/05/04 11:25:24;;;;;;;2.92;2.20;;;17.80;80.50;;;;;;5180298;28;20053;-74
2022/05/04 11:27:57;;;;;;;4.60;3.13;;;17.80;79.30;;;;;;5171710;28;20053;-74
2022/05/04 11:30:30;;;;;;;5.10;2.60;;;17.90;78.70;;;;;;5186542;28;20607;-74
2022/05/04 11:33:06;;;;;;;6.07;2.40;;;17.90;79.10;;;;;;5184101;28;20053;-74
2022/05/04 11:35:41;;;;;;;3.97;2.50;;;18.00;79.60;;;;;;5187740;28;20038;-74
2022/05/04 11:38:21;;;;;;;2.83;2.42;;;18.10;78.20;;;;;;5183535;28;20037;-74
2022/05/04 11:40:54;;;;;;;3.45;2.47;;;18.10;77.70;;;;;;5138825;23;20051;-86
2022/05/04 11:43:30;;;;;;;4.40;2.97;;;18.10;80.00;;;;;;5126822;28;20066;-85
2022/05/04 11:46:07;;;;;;;3.42;2.75;;;18.10;79.40;;;;;;5124641;28;20415;-86
2022/05/04 11:48:45;;;;;;;3.08;2.78;;;18.10;81.30;;;;;;5144496;28;20605;-85
2022/05/04 11:51:18;;;;;;;4.85;3.33;;;18.00;80.40;;;;;;5137840;28;20345;-85
2022/05/04 11:53:50;;;;;;;5.97;3.15;;;18.00;80.50;;;;;;5137764;28;20042;-87
2022/05/04 11:56:22;;;;;;;6.75;3.10;;;18.00;81.40;;;;;;5146327;28;20042;-87
2022/05/04 11:58:55;;;;;;;3.80;2.58;;;18.00;81.80;;;;;;5138975;28;20042;-87
2022/05/04 12:01:27;;;;;;;3.67;2.83;;;18.10;82.10;;;;;;5124935;28;20428;-86
2022/05/04 12:04:01;;;;;;;3.70;2.90;;;18.30;83.70;;;;;;5151302;28;20395;-86
2022/05/04 12:06:34;;;;;;;5.07;2.80;;;18.80;83.40;;;;;;5136019;28;20057;-86
2022/05/04 12:09:07;;;;;;;4.75;2.58;;;19.10;81.30;;;;;;5147336;28;20134;-85
2022/05/04 12:11:40;;;;;;;3.72;2.15;;;19.10;77.60;;;;;;5106657;28;20553;-85
2022/05/04 12:14:15;;;;;;;7.33;2.83;;;19.10;77.10;;;;;;5134555;28;20054;-84
2022/05/04 12:16:48;;;;;;;5.78;3.42;;;19.00;77.50;;;;;;5131926;28;20058;-83
2022/05/04 12:19:21;;;;;;;4.05;3.13;;;18.90;77.30;;;;;;5156471;23;20046;-72
2022/05/04 12:21:54;;;;;;;2.90;2.70;;;18.80;76.70;;;;;;5178735;28;20082;-73
2022/05/04 12:24:26;;;;;;;6.45;2.58;;;18.80;76.40;;;;;;5201966;28;20045;-72
2022/05/04 12:26:59;;;;;;;3.13;2.58;;;18.90;75.80;;;;;;5181248;28;20421;-72
2022/05/04 12:35:20;;;;;;;3.08;2.47;;;20.20;71.60;;;;;;5155408;23;20047;-66
2022/05/04 12:37:53;;;;;;;4.88;2.25;;;20.40;68.20;;;;;;5116269;28;20042;-67
2022/05/04 12:40:26;;;;;;;3.05;2.25;;;20.50;67.20;;;;;;5123046;28;20053;-67
2022/05/04 12:43:00;;;;;;;3.10;2.23;;;20.50;67.50;;;;;;5128968;28;20058;-65
2022/05/04 12:45:35;;;;;;;2.60;2.17;;;20.50;66.00;;;;;;5144472;28;20178;-67
2022/05/04 12:48:13;;;;;;;3.47;2.15;;;20.50;64.40;;;;;;4964233;28;10000988;-69
2022/05/04 12:50:46;;;;;;;4.38;1.90;;;20.40;64.00;;;;;;4459002;28;10000856;-66
2022/05/04 12:53:19;;;;;;;3.67;2.30;;;20.30;64.90;;;;;;5164832;28;20038;-65
2022/05/04 12:58:43;;;;;;;3.50;2.58;;;20.20;66.60;;;;;;5154115;28;20088;-67
2022/05/04 13:01:15;;;;;;;2.97;2.30;;;21.00;65.40;;;;;;5144828;28;20545;-67
2022/05/04 13:03:50;;;;;;;2.75;2.45;;;21.40;64.50;;;;;;5143940;28;20506;-68
2022/05/04 13:06:23;;;;;;;3.15;2.22;;;21.70;63.10;;;;;;5172570;28;20050;-66
2022/05/04 13:08:56;;;;;;;3.85;2.45;;;21.70;61.70;;;;;;5159042;28;20050;-66
2022/05/04 13:11:30;;;;;;;2.50;2.30;;;21.60;61.70;;;;;;5156547;28;20053;-67
2022/05/04 13:14:03;;;;;;;4.38;2.70;;;21.20;61.70;;;;;;5153869;28;20042;-67
2022/05/04 13:16:36;;;;;;;3.30;2.55;;;21.00;62.30;;;;;;5157491;28;20052;-68
2022/05/04 13:19:11;;;;;;;5.15;2.58;;;20.70;64.30;;;;;;5151546;28;20046;-68
2022/05/04 13:21:44;;;;;;;7.55;2.78;;;20.40;64.50;;;;;;5159384;28;20046;-68
2022/05/04 13:24:16;;;;;;;3.88;2.50;;;20.40;65.00;;;;;;5154294;28;20054;-68
2022/05/04 13:26:49;;;;;;;6.22;2.67;;;20.20;64.80;;;;;;5155033;28;20407;-68
2022/05/04 13:29:21;;;;;;;5.22;2.78;;;20.10;65.60;;;;;;5155820;28;20061;-67
2022/05/04 13:31:54;;;;;;;3.75;2.80;;;20.20;66.00;;;;;;5158525;28;20066;-67
2022/05/04 13:34:27;;;;;;;3.28;2.75;;;20.40;66.20;;;;;;5159670;28;20046;-67
2022/05/04 13:36:59;;;;;;;3.63;2.60;;;20.70;65.80;;;;;;5157109;28;20054;-67
2022/05/04 13:39:32;;;;;;;3.05;2.72;;;21.00;66.80;;;;;;5153430;28;20069;-67
2022/05/04 13:42:05;;;;;;;3.72;2.35;;;21.50;64.50;;;;;;5155853;28;20219;-66
2022/05/04 13:44:37;;;;;;;4.35;2.70;;;22.30;63.30;;;;;;5157616;28;20050;-68
2022/05/04 13:47:11;;;;;;;2.63;2.10;;;22.70;62.40;;;;;;5157432;28;20057;-67
2022/05/04 13:49:43;;;;;;;3.08;2.60;;;23.00;61.50;;;;;;5154575;28;20058;-67
2022/05/04 13:55:07;;;;;;;3.28;2.60;;;23.20;59.60;;;;;;5160722;28;20054;-68
2022/05/04 13:57:40;;;;;;;3.80;2.63;;;23.10;57.70;;;;;;5160780;28;20042;-68
2022/05/04 14:00:13;;;;;;;2.90;2.60;;;23.30;59.20;;;;;;5145564;28;20057;-68
2022/05/04 14:02:46;;;;;;;3.25;2.35;;;23.40;56.30;;;;;;5145674;28;20046;-67
2022/05/04 14:05:18;;;;;;;3.05;2.75;;;23.10;58.00;;;;;;5140468;28;20050;-70
2022/05/04 14:07:52;;;;;;;3.60;2.72;;;23.40;58.60;;;;;;5140109;28;23027;-67
2022/05/04 14:10:24;;;;;;;4.30;2.30;;;23.50;58.40;;;;;;5141982;28;20057;-70